sensor_id;sensor_type;location;lat;lon;timestamp;pressure;altitude;pressure_sealevel;temperature;humidity
9521;BME280;4798;41.574;23.734;2024-02-23T00:01:13;95382.19;;;9.66;76.69
9521;BME280;4798;41.574;23.734;2024-02-23T00:03:43;95379.31;;;10.02;74.72
9521;BME280;4798;41.574;23.734;2024-02-23T00:06:12;95380.91;;;10.08;73.50
9521;BME280;4798;41.574;23.734;2024-02-23T00:08:42;95380.41;;;10.01;75.67
9521;BME280;4798;41.574;23.734;2024-02-23T00:11:10;95315.22;;;9.65;74.14
9521;BME280;4798;41.574;23.734;2024-02-23T00:13:39;95385.16;;;10.14;74.40
9521;BME280;4798;41.574;23.734;2024-02-23T00:16:07;95381.16;;;9.97;74.36
9521;BME280;4798;41.574;23.734;2024-02-23T00:18:36;95380.59;;;9.70;76.57
9521;BME280;4798;41.574;23.734;2024-02-23T00:21:06;95376.66;;;9.87;76.15
9521;BME280;4798;41.574;23.734;2024-02-23T00:23:34;95370.34;;;10.18;74.29
9521;BME280;4798;41.574;23.734;2024-02-23T00:26:03;95367.97;;;10.22;73.36
9521;BME280;4798;41.574;23.734;2024-02-23T00:28:32;95353.34;;;9.79;75.66
9521;BME280;4798;41.574;23.734;2024-02-23T00:31:01;95330.84;;;9.82;73.97
9521;BME280;4798;41.574;23.734;2024-02-23T00:33:29;95355.75;;;9.91;75.05
9521;BME280;4798;41.574;23.734;2024-02-23T00:35:58;95351.50;;;10.05;73.68
9521;BME280;4798;41.574;23.734;2024-02-23T00:38:28;95351.78;;;10.08;73.68
9521;BME280;4798;41.574;23.734;2024-02-23T00:40:56;95344.91;;;9.97;73.95
9521;BME280;4798;41.574;23.734;2024-02-23T00:43:25;95339.59;;;10.07;73.68
9521;BME280;4798;41.574;23.734;2024-02-23T00:45:56;95332.09;;;9.39;76.59
9521;BME280;4798;41.574;23.734;2024-02-23T00:48:25;95341.81;;;9.08;80.33
9521;BME280;4798;41.574;23.734;2024-02-23T00:50:54;95340.59;;;9.46;77.84
9521;BME280;4798;41.574;23.734;2024-02-23T00:53:23;95336.13;;;9.77;75.84
9521;BME280;4798;41.574;23.734;2024-02-23T00:55:53;95332.13;;;9.59;78.10
9521;BME280;4798;41.574;23.734;2024-02-23T00:58:21;95343.00;;;9.63;80.22
9521;BME280;4798;41.574;23.734;2024-02-23T01:00:50;95339.56;;;9.57;78.72
9521;BME280;4798;41.574;23.734;2024-02-23T01:03:18;95339.25;;;9.33;81.08
9521;BME280;4798;41.574;23.734;2024-02-23T01:05:47;95333.78;;;8.88;84.32
9521;BME280;4798;41.574;23.734;2024-02-23T01:08:16;95281.75;;;8.99;80.83
9521;BME280;4798;41.574;23.734;2024-02-23T01:10:45;95329.44;;;9.29;81.57
9521;BME280;4798;41.574;23.734;2024-02-23T01:13:15;95335.13;;;8.95;83.04
9521;BME280;4798;41.574;23.734;2024-02-23T01:15:43;95337.31;;;9.19;81.69
9521;BME280;4798;41.574;23.734;2024-02-23T01:18:12;95328.66;;;9.23;81.63
9521;BME280;4798;41.574;23.734;2024-02-23T01:20:41;95312.81;;;9.38;79.36
9521;BME280;4798;41.574;23.734;2024-02-23T01:23:09;95322.13;;;9.61;78.14
9521;BME280;4798;41.574;23.734;2024-02-23T01:25:38;95317.06;;;9.54;78.40
9521;BME280;4798;41.574;23.734;2024-02-23T01:28:07;95313.09;;;9.62;78.02
9521;BME280;4798;41.574;23.734;2024-02-23T01:30:37;95314.19;;;9.66;78.40
9521;BME280;4798;41.574;23.734;2024-02-23T01:33:06;95306.47;;;9.54;78.89
9521;BME280;4798;41.574;23.734;2024-02-23T01:35:35;95292.44;;;9.39;79.94
9521;BME280;4798;41.574;23.734;2024-02-23T01:38:04;95301.47;;;9.53;77.89
9521;BME280;4798;41.574;23.734;2024-02-23T01:40:33;95299.63;;;9.58;77.13
9521;BME280;4798;41.574;23.734;2024-02-23T01:43:03;95310.44;;;9.52;78.28
9521;BME280;4798;41.574;23.734;2024-02-23T01:45:31;95298.78;;;9.38;78.65
9521;BME280;4798;41.574;23.734;2024-02-23T01:48:02;95306.19;;;9.31;79.26
9521;BME280;4798;41.574;23.734;2024-02-23T01:50:31;95269.13;;;9.16;79.02
9521;BME280;4798;41.574;23.734;2024-02-23T01:53:01;95298.44;;;9.14;79.95
9521;BME280;4798;41.574;23.734;2024-02-23T01:55:31;95273.06;;;9.08;79.33
9521;BME280;4798;41.574;23.734;2024-02-23T01:58:04;95297.94;;;9.12;79.92
9521;BME280;4798;41.574;23.734;2024-02-23T02:00:35;95242.63;;;8.28;83.74
9521;BME280;4798;41.574;23.734;2024-02-23T02:03:05;95291.88;;;8.50;87.06
9521;BME280;4798;41.574;23.734;2024-02-23T02:05:38;95250.75;;;8.22;85.90
9521;BME280;4798;41.574;23.734;2024-02-23T02:08:07;95299.66;;;8.81;83.76
9521;BME280;4798;41.574;23.734;2024-02-23T02:10:36;95291.31;;;9.10;81.21
9521;BME280;4798;41.574;23.734;2024-02-23T02:13:05;95306.34;;;8.99;80.70
9521;BME280;4798;41.574;23.734;2024-02-23T02:15:34;95295.00;;;9.09;79.21
9521;BME280;4798;41.574;23.734;2024-02-23T02:18:02;95285.50;;;9.08;79.15
9521;BME280;4798;41.574;23.734;2024-02-23T02:20:33;95292.38;;;9.19;78.45
9521;BME280;4798;41.574;23.734;2024-02-23T02:23:04;95287.09;;;9.19;78.11
9521;BME280;4798;41.574;23.734;2024-02-23T02:25:34;95285.78;;;9.21;78.33
9521;BME280;4798;41.574;23.734;2024-02-23T02:28:06;95291.03;;;9.06;78.14
9521;BME280;4798;41.574;23.734;2024-02-23T02:30:34;95293.94;;;9.05;78.67
9521;BME280;4798;41.574;23.734;2024-02-23T02:33:03;95285.66;;;8.81;80.83
9521;BME280;4798;41.574;23.734;2024-02-23T02:35:33;95296.75;;;8.88;81.24
9521;BME280;4798;41.574;23.734;2024-02-23T02:38:02;95231.44;;;8.68;79.44
9521;BME280;4798;41.574;23.734;2024-02-23T02:40:31;95273.78;;;8.88;79.77
9521;BME280;4798;41.574;23.734;2024-02-23T02:43:00;95282.75;;;8.77;81.21
9521;BME280;4798;41.574;23.734;2024-02-23T02:45:28;95284.22;;;8.58;84.03
9521;BME280;4798;41.574;23.734;2024-02-23T02:47:57;95282.72;;;8.72;82.12
9521;BME280;4798;41.574;23.734;2024-02-23T02:50:25;95292.25;;;8.78;81.66
9521;BME280;4798;41.574;23.734;2024-02-23T02:52:55;95298.63;;;8.87;81.10
9521;BME280;4798;41.574;23.734;2024-02-23T02:55:24;95301.84;;;8.94;79.63
9521;BME280;4798;41.574;23.734;2024-02-23T02:57:53;95289.69;;;8.99;78.97
9521;BME280;4798;41.574;23.734;2024-02-23T03:00:22;95291.03;;;9.11;78.64
9521;BME280;4798;41.574;23.734;2024-02-23T03:02:50;95277.81;;;9.06;78.37
9521;BME280;4798;41.574;23.734;2024-02-23T03:05:19;95288.66;;;9.05;78.18
9521;BME280;4798;41.574;23.734;2024-02-23T03:07:48;95272.25;;;8.98;77.70
9521;BME280;4798;41.574;23.734;2024-02-23T03:10:18;95284.16;;;9.05;77.93
9521;BME280;4798;41.574;23.734;2024-02-23T03:12:46;95280.44;;;9.01;77.87
9521;BME280;4798;41.574;23.734;2024-02-23T03:15:15;95269.28;;;8.84;78.18
9521;BME280;4798;41.574;23.734;2024-02-23T03:17:43;95272.75;;;8.94;77.81
9521;BME280;4798;41.574;23.734;2024-02-23T03:20:12;95271.97;;;8.94;77.44
9521;BME280;4798;41.574;23.734;2024-02-23T03:22:41;95274.00;;;8.77;78.61
9521;BME280;4798;41.574;23.734;2024-02-23T03:25:10;95272.94;;;8.73;78.69
9521;BME280;4798;41.574;23.734;2024-02-23T03:27:40;95268.97;;;8.75;78.19
9521;BME280;4798;41.574;23.734;2024-02-23T03:30:09;95266.31;;;8.75;79.21
9521;BME280;4798;41.574;23.734;2024-02-23T03:32:38;95268.47;;;8.83;78.65
9521;BME280;4798;41.574;23.734;2024-02-23T03:35:07;95269.53;;;8.77;79.29
9521;BME280;4798;41.574;23.734;2024-02-23T03:37:36;95275.56;;;8.73;78.52
9521;BME280;4798;41.574;23.734;2024-02-23T03:40:06;95278.97;;;8.63;78.19
9521;BME280;4798;41.574;23.734;2024-02-23T03:42:37;95273.94;;;8.62;78.31
9521;BME280;4798;41.574;23.734;2024-02-23T03:45:07;95278.41;;;8.56;78.56
9521;BME280;4798;41.574;23.734;2024-02-23T03:47:36;95223.47;;;8.06;79.84
9521;BME280;4798;41.574;23.734;2024-02-23T03:50:06;95276.50;;;8.42;80.20
9521;BME280;4798;41.574;23.734;2024-02-23T03:52:34;95277.59;;;8.51;79.54
9521;BME280;4798;41.574;23.734;2024-02-23T03:55:04;95267.81;;;8.46;78.57
9521;BME280;4798;41.574;23.734;2024-02-23T03:57:33;95257.72;;;8.38;78.32
9521;BME280;4798;41.574;23.734;2024-02-23T04:00:02;95284.72;;;8.50;78.35
9521;BME280;4798;41.574;23.734;2024-02-23T04:02:32;95282.66;;;8.57;77.94
9521;BME280;4798;41.574;23.734;2024-02-23T04:05:00;95247.53;;;8.15;79.51
9521;BME280;4798;41.574;23.734;2024-02-23T04:07:29;95283.13;;;8.44;80.49
9521;BME280;4798;41.574;23.734;2024-02-23T04:09:58;95284.44;;;8.47;80.07
9521;BME280;4798;41.574;23.734;2024-02-23T04:12:27;95285.78;;;8.49;80.51
9521;BME280;4798;41.574;23.734;2024-02-23T04:14:55;95283.34;;;8.43;81.02
9521;BME280;4798;41.574;23.734;2024-02-23T04:17:24;95278.06;;;8.43;80.41
9521;BME280;4798;41.574;23.734;2024-02-23T04:19:54;95269.59;;;8.36;80.25
9521;BME280;4798;41.574;23.734;2024-02-23T04:22:23;95288.06;;;8.36;80.49
9521;BME280;4798;41.574;23.734;2024-02-23T04:24:51;95281.44;;;8.28;81.51
9521;BME280;4798;41.574;23.734;2024-02-23T04:27:20;95285.97;;;8.01;85.56
9521;BME280;4798;41.574;23.734;2024-02-23T04:29:48;95293.06;;;8.27;83.83
9521;BME280;4798;41.574;23.734;2024-02-23T04:32:17;95284.63;;;8.35;81.85
9521;BME280;4798;41.574;23.734;2024-02-23T04:34:45;95214.41;;;7.92;80.87
9521;BME280;4798;41.574;23.734;2024-02-23T04:37:16;95277.75;;;8.29;79.79
9521;BME280;4798;41.574;23.734;2024-02-23T04:39:44;95272.03;;;8.10;81.22
9521;BME280;4798;41.574;23.734;2024-02-23T04:42:13;95279.38;;;7.98;81.94
9521;BME280;4798;41.574;23.734;2024-02-23T04:44:42;95280.66;;;7.96;83.53
9521;BME280;4798;41.574;23.734;2024-02-23T04:47:10;95284.78;;;7.82;84.21
9521;BME280;4798;41.574;23.734;2024-02-23T04:49:39;95286.25;;;7.67;85.87
9521;BME280;4798;41.574;23.734;2024-02-23T04:52:08;95221.59;;;7.28;86.93
9521;BME280;4798;41.574;23.734;2024-02-23T04:54:38;95280.34;;;7.55;88.42
9521;BME280;4798;41.574;23.734;2024-02-23T04:57:07;95277.16;;;7.53;87.93
9521;BME280;4798;41.574;23.734;2024-02-23T04:59:35;95273.97;;;7.51;86.93
9521;BME280;4798;41.574;23.734;2024-02-23T05:02:04;95241.34;;;7.26;86.47
9521;BME280;4798;41.574;23.734;2024-02-23T05:04:33;95277.41;;;7.52;87.23
9521;BME280;4798;41.574;23.734;2024-02-23T05:07:02;95273.34;;;7.39;86.71
9521;BME280;4798;41.574;23.734;2024-02-23T05:09:30;95282.91;;;7.45;85.90
9521;BME280;4798;41.574;23.734;2024-02-23T05:12:01;95282.53;;;7.37;86.11
9521;BME280;4798;41.574;23.734;2024-02-23T05:14:30;95264.69;;;7.17;85.84
9521;BME280;4798;41.574;23.734;2024-02-23T05:16:58;95203.69;;;6.77;86.36
9521;BME280;4798;41.574;23.734;2024-02-23T05:19:27;95290.34;;;7.27;89.12
9521;BME280;4798;41.574;23.734;2024-02-23T05:21:55;95304.72;;;7.14;91.66
9521;BME280;4798;41.574;23.734;2024-02-23T05:24:24;95267.13;;;6.97;90.25
9521;BME280;4798;41.574;23.734;2024-02-23T05:26:53;95308.31;;;7.30;89.88
9521;BME280;4798;41.574;23.734;2024-02-23T05:29:25;95311.97;;;7.29;89.39
9521;BME280;4798;41.574;23.734;2024-02-23T05:31:53;95307.03;;;7.06;93.08
9521;BME280;4798;41.574;23.734;2024-02-23T05:34:22;95307.94;;;7.21;91.67
9521;BME280;4798;41.574;23.734;2024-02-23T05:36:51;95315.41;;;7.29;91.22
9521;BME280;4798;41.574;23.734;2024-02-23T05:39:19;95310.03;;;7.41;91.10
9521;BME280;4798;41.574;23.734;2024-02-23T05:41:48;95275.03;;;6.97;95.98
9521;BME280;4798;41.574;23.734;2024-02-23T05:44:17;95310.69;;;7.31;95.85
9521;BME280;4798;41.574;23.734;2024-02-23T05:46:47;95312.78;;;7.56;92.60
9521;BME280;4798;41.574;23.734;2024-02-23T05:49:15;95310.38;;;7.81;89.52
9521;BME280;4798;41.574;23.734;2024-02-23T05:51:44;95322.59;;;7.92;88.43
9521;BME280;4798;41.574;23.734;2024-02-23T05:54:12;95319.53;;;8.05;87.15
9521;BME280;4798;41.574;23.734;2024-02-23T05:56:41;95327.13;;;7.97;86.97
9521;BME280;4798;41.574;23.734;2024-02-23T05:59:12;95329.19;;;7.95;88.80
9521;BME280;4798;41.574;23.734;2024-02-23T06:01:41;95329.34;;;8.15;86.85
9521;BME280;4798;41.574;23.734;2024-02-23T06:04:11;95255.25;;;7.85;83.89
9521;BME280;4798;41.574;23.734;2024-02-23T06:06:41;95305.63;;;8.20;84.12
9521;BME280;4798;41.574;23.734;2024-02-23T06:09:10;95327.78;;;8.14;85.14
9521;BME280;4798;41.574;23.734;2024-02-23T06:11:39;95338.88;;;8.16;85.25
9521;BME280;4798;41.574;23.734;2024-02-23T06:14:09;95342.41;;;7.95;86.67
9521;BME280;4798;41.574;23.734;2024-02-23T06:16:38;95332.97;;;8.04;85.50
9521;BME280;4798;41.574;23.734;2024-02-23T06:19:09;95285.13;;;7.58;86.27
9521;BME280;4798;41.574;23.734;2024-02-23T06:21:39;95260.53;;;7.53;86.12
9521;BME280;4798;41.574;23.734;2024-02-23T06:24:08;95354.31;;;8.29;82.76
9521;BME280;4798;41.574;23.734;2024-02-23T06:26:37;95341.41;;;8.01;82.47
9521;BME280;4798;41.574;23.734;2024-02-23T06:29:05;95353.00;;;8.32;82.41
9521;BME280;4798;41.574;23.734;2024-02-23T06:31:35;95344.13;;;8.48;81.60
9521;BME280;4798;41.574;23.734;2024-02-23T06:34:04;95360.91;;;8.68;82.39
9521;BME280;4798;41.574;23.734;2024-02-23T06:36:33;95352.06;;;9.00;79.72
9521;BME280;4798;41.574;23.734;2024-02-23T06:39:04;95349.88;;;9.53;77.26
9521;BME280;4798;41.574;23.734;2024-02-23T06:41:32;95344.66;;;9.99;74.72
9521;BME280;4798;41.574;23.734;2024-02-23T06:44:01;95339.63;;;10.23;73.42
9521;BME280;4798;41.574;23.734;2024-02-23T06:46:30;95341.16;;;10.69;73.28
9521;BME280;4798;41.574;23.734;2024-02-23T06:48:58;95340.22;;;11.14;71.43
9521;BME280;4798;41.574;23.734;2024-02-23T06:51:27;95336.00;;;11.57;70.25
9521;BME280;4798;41.574;23.734;2024-02-23T06:53:55;95338.22;;;11.93;68.80
9521;BME280;4798;41.574;23.734;2024-02-23T06:56:26;95337.59;;;12.06;66.98
9521;BME280;4798;41.574;23.734;2024-02-23T06:58:54;95297.44;;;12.08;68.95
9521;BME280;4798;41.574;23.734;2024-02-23T07:01:23;95331.88;;;12.52;66.80
9521;BME280;4798;41.574;23.734;2024-02-23T07:03:51;95335.31;;;12.52;66.18
9521;BME280;4798;41.574;23.734;2024-02-23T07:06:20;95335.75;;;12.64;66.30
9521;BME280;4798;41.574;23.734;2024-02-23T07:08:49;95329.53;;;12.98;64.76
9521;BME280;4798;41.574;23.734;2024-02-23T07:11:17;95322.56;;;13.02;64.22
9521;BME280;4798;41.574;23.734;2024-02-23T07:13:47;95330.78;;;13.05;63.71
9521;BME280;4798;41.574;23.734;2024-02-23T07:16:16;95334.16;;;12.01;66.44
9521;BME280;4798;41.574;23.734;2024-02-23T07:18:45;95338.47;;;11.48;68.27
9521;BME280;4798;41.574;23.734;2024-02-23T07:21:13;95348.25;;;10.89;70.56
9521;BME280;4798;41.574;23.734;2024-02-23T07:23:45;95354.34;;;10.89;71.64
9521;BME280;4798;41.574;23.734;2024-02-23T07:26:13;95344.63;;;10.64;72.02
9521;BME280;4798;41.574;23.734;2024-02-23T07:28:42;95336.63;;;11.43;70.62
9521;BME280;4798;41.574;23.734;2024-02-23T07:31:12;95342.03;;;11.23;70.49
9521;BME280;4798;41.574;23.734;2024-02-23T07:33:42;95338.06;;;11.16;71.40
9521;BME280;4798;41.574;23.734;2024-02-23T07:36:14;95338.19;;;11.49;70.67
9521;BME280;4798;41.574;23.734;2024-02-23T07:38:42;95346.66;;;12.34;67.67
9521;BME280;4798;41.574;23.734;2024-02-23T07:41:12;95336.38;;;12.23;67.37
9521;BME280;4798;41.574;23.734;2024-02-23T07:43:41;95355.91;;;12.08;67.62
9521;BME280;4798;41.574;23.734;2024-02-23T07:46:10;95349.47;;;11.75;68.80
9521;BME280;4798;41.574;23.734;2024-02-23T07:48:40;95342.53;;;11.79;68.92
9521;BME280;4798;41.574;23.734;2024-02-23T07:51:08;95346.19;;;11.93;68.34
9521;BME280;4798;41.574;23.734;2024-02-23T07:53:38;95323.22;;;11.74;68.90
9521;BME280;4798;41.574;23.734;2024-02-23T07:56:07;95345.84;;;12.00;68.47
9521;BME280;4798;41.574;23.734;2024-02-23T07:58:36;95341.78;;;12.13;68.25
9521;BME280;4798;41.574;23.734;2024-02-23T08:01:05;95338.97;;;12.85;65.37
9521;BME280;4798;41.574;23.734;2024-02-23T08:03:33;95342.81;;;12.45;66.45
9521;BME280;4798;41.574;23.734;2024-02-23T08:06:04;95343.91;;;12.10;67.31
9521;BME280;4798;41.574;23.734;2024-02-23T08:08:33;95334.69;;;12.60;67.37
9521;BME280;4798;41.574;23.734;2024-02-23T08:11:03;95337.72;;;12.77;65.14
9521;BME280;4798;41.574;23.734;2024-02-23T08:13:32;95339.59;;;13.01;64.81
9521;BME280;4798;41.574;23.734;2024-02-23T08:16:00;95303.38;;;13.05;65.06
9521;BME280;4798;41.574;23.734;2024-02-23T08:18:29;95340.31;;;13.72;63.37
9521;BME280;4798;41.574;23.734;2024-02-23T08:20:58;95339.94;;;13.79;62.47
9521;BME280;4798;41.574;23.734;2024-02-23T08:23:30;95337.25;;;13.23;63.94
9521;BME280;4798;41.574;23.734;2024-02-23T08:25:59;95327.28;;;13.10;64.43
9521;BME280;4798;41.574;23.734;2024-02-23T08:28:28;95330.88;;;13.80;63.24
9521;BME280;4798;41.574;23.734;2024-02-23T08:30:56;95331.41;;;14.65;61.35
9521;BME280;4798;41.574;23.734;2024-02-23T08:33:25;95284.97;;;15.48;59.22
9521;BME280;4798;41.574;23.734;2024-02-23T08:35:54;95323.97;;;16.51;57.29
9521;BME280;4798;41.574;23.734;2024-02-23T08:38:23;95327.19;;;16.39;56.09
9521;BME280;4798;41.574;23.734;2024-02-23T08:40:53;95287.41;;;15.94;55.43
9521;BME280;4798;41.574;23.734;2024-02-23T08:43:22;95311.91;;;17.32;54.23
9521;BME280;4798;41.574;23.734;2024-02-23T08:45:50;95329.50;;;17.16;52.96
9521;BME280;4798;41.574;23.734;2024-02-23T08:48:19;95322.66;;;17.49;52.41
9521;BME280;4798;41.574;23.734;2024-02-23T08:50:48;95322.81;;;16.66;53.53
9521;BME280;4798;41.574;23.734;2024-02-23T08:53:16;95320.13;;;16.96;53.69
9521;BME280;4798;41.574;23.734;2024-02-23T08:55:45;95212.66;;;16.41;53.01
9521;BME280;4798;41.574;23.734;2024-02-23T08:58:15;95322.81;;;17.44;52.95
9521;BME280;4798;41.574;23.734;2024-02-23T09:00:44;95239.41;;;17.29;51.68
9521;BME280;4798;41.574;23.734;2024-02-23T09:03:12;95318.81;;;18.07;51.35
9521;BME280;4798;41.574;23.734;2024-02-23T09:05:41;95237.75;;;17.84;50.23
9521;BME280;4798;41.574;23.734;2024-02-23T09:08:10;95308.13;;;18.87;48.92
9521;BME280;4798;41.574;23.734;2024-02-23T09:10:39;95313.13;;;19.06;48.79
9521;BME280;4798;41.574;23.734;2024-02-23T09:13:07;95301.38;;;19.78;47.61
9521;BME280;4798;41.574;23.734;2024-02-23T09:15:37;95262.06;;;19.44;47.50
9521;BME280;4798;41.574;23.734;2024-02-23T09:18:06;95297.56;;;19.99;47.55
9521;BME280;4798;41.574;23.734;2024-02-23T09:20:35;95280.63;;;20.40;45.28
9521;BME280;4798;41.574;23.734;2024-02-23T09:23:04;95292.38;;;20.80;45.04
9521;BME280;4798;41.574;23.734;2024-02-23T09:25:32;95291.19;;;21.50;43.25
9521;BME280;4798;41.574;23.734;2024-02-23T09:28:01;95283.69;;;21.56;42.87
9521;BME280;4798;41.574;23.734;2024-02-23T09:30:29;95271.38;;;22.50;41.50
9521;BME280;4798;41.574;23.734;2024-02-23T09:32:59;95277.66;;;23.29;40.21
9521;BME280;4798;41.574;23.734;2024-02-23T09:35:28;95244.63;;;22.45;40.99
9521;BME280;4798;41.574;23.734;2024-02-23T09:37:57;95261.97;;;22.60;40.67
9521;BME280;4798;41.574;23.734;2024-02-23T09:40:26;95199.06;;;22.44;40.78
9521;BME280;4798;41.574;23.734;2024-02-23T09:42:56;95255.19;;;21.95;41.75
9521;BME280;4798;41.574;23.734;2024-02-23T09:45:26;95266.38;;;21.57;42.47
9521;BME280;4798;41.574;23.734;2024-02-23T09:47:56;95266.88;;;21.99;41.58
9521;BME280;4798;41.574;23.734;2024-02-23T09:50:28;95271.66;;;22.89;40.23
9521;BME280;4798;41.574;23.734;2024-02-23T09:52:58;95256.06;;;22.27;41.68
9521;BME280;4798;41.574;23.734;2024-02-23T09:55:27;95248.50;;;22.32;40.86
9521;BME280;4798;41.574;23.734;2024-02-23T09:57:57;95251.44;;;22.55;40.35
9521;BME280;4798;41.574;23.734;2024-02-23T10:00:27;95219.41;;;22.26;40.55
9521;BME280;4798;41.574;23.734;2024-02-23T10:02:57;95236.59;;;22.92;39.83
9521;BME280;4798;41.574;23.734;2024-02-23T10:05:30;95196.38;;;23.22;39.50
9521;BME280;4798;41.574;23.734;2024-02-23T10:08:04;95221.94;;;23.09;40.25
9521;BME280;4798;41.574;23.734;2024-02-23T10:10:34;95213.09;;;23.97;38.10
9521;BME280;4798;41.574;23.734;2024-02-23T10:13:05;95210.03;;;23.29;38.95
9521;BME280;4798;41.574;23.734;2024-02-23T10:15:35;95167.44;;;23.95;37.71
9521;BME280;4798;41.574;23.734;2024-02-23T10:18:04;95194.28;;;24.88;36.76
9521;BME280;4798;41.574;23.734;2024-02-23T10:20:34;95201.88;;;25.27;37.16
9521;BME280;4798;41.574;23.734;2024-02-23T10:23:04;95203.50;;;25.06;38.04
9521;BME280;4798;41.574;23.734;2024-02-23T10:25:33;95162.03;;;25.32;37.21
9521;BME280;4798;41.574;23.734;2024-02-23T10:28:02;95187.56;;;25.83;35.37
9521;BME280;4798;41.574;23.734;2024-02-23T10:30:31;95169.16;;;24.91;36.18
9521;BME280;4798;41.574;23.734;2024-02-23T10:33:00;95133.88;;;23.62;37.30
9521;BME280;4798;41.574;23.734;2024-02-23T10:35:30;95182.38;;;24.09;38.15
9521;BME280;4798;41.574;23.734;2024-02-23T10:38:05;95179.31;;;23.72;38.20
9521;BME280;4798;41.574;23.734;2024-02-23T10:40:39;95175.13;;;24.13;37.85
9521;BME280;4798;41.574;23.734;2024-02-23T10:43:12;95170.69;;;24.05;37.28
9521;BME280;4798;41.574;23.734;2024-02-23T10:45:45;95179.50;;;23.44;38.40
9521;BME280;4798;41.574;23.734;2024-02-23T10:48:15;95168.72;;;23.13;39.51
9521;BME280;4798;41.574;23.734;2024-02-23T10:50:44;95075.44;;;22.53;39.40
9521;BME280;4798;41.574;23.734;2024-02-23T10:53:14;95126.81;;;23.95;37.97
9521;BME280;4798;41.574;23.734;2024-02-23T10:55:47;95180.22;;;23.10;39.00
9521;BME280;4798;41.574;23.734;2024-02-23T10:58:16;95164.78;;;22.17;40.31
9521;BME280;4798;41.574;23.734;2024-02-23T11:00:45;95150.16;;;21.22;42.15
9521;BME280;4798;41.574;23.734;2024-02-23T11:03:15;95149.09;;;22.06;41.44
9521;BME280;4798;41.574;23.734;2024-02-23T11:05:47;95148.63;;;21.77;41.19
9521;BME280;4798;41.574;23.734;2024-02-23T11:08:19;95130.19;;;20.99;41.91
9521;BME280;4798;41.574;23.734;2024-02-23T11:10:52;95145.38;;;20.79;42.36
9521;BME280;4798;41.574;23.734;2024-02-23T11:13:30;95122.97;;;21.03;42.49
9521;BME280;4798;41.574;23.734;2024-02-23T11:16:02;95103.97;;;19.91;43.89
9521;BME280;4798;41.574;23.734;2024-02-23T11:18:31;95119.72;;;19.68;45.27
9521;BME280;4798;41.574;23.734;2024-02-23T11:21:03;95145.22;;;19.62;45.20
9521;BME280;4798;41.574;23.734;2024-02-23T11:23:42;95129.06;;;20.52;44.10
9521;BME280;4798;41.574;23.734;2024-02-23T11:26:11;95131.13;;;20.67;42.85
9521;BME280;4798;41.574;23.734;2024-02-23T11:28:47;95135.81;;;20.82;43.29
9521;BME280;4798;41.574;23.734;2024-02-23T11:31:19;95125.47;;;20.96;43.29
9521;BME280;4798;41.574;23.734;2024-02-23T11:33:48;95030.88;;;21.69;41.89
9521;BME280;4798;41.574;23.734;2024-02-23T11:36:24;95075.16;;;21.95;40.66
9521;BME280;4798;41.574;23.734;2024-02-23T11:38:56;95060.38;;;19.32;43.39
9521;BME280;4798;41.574;23.734;2024-02-23T11:41:25;95113.75;;;20.07;43.42
9521;BME280;4798;41.574;23.734;2024-02-23T11:43:55;95113.22;;;19.48;43.67
9521;BME280;4798;41.574;23.734;2024-02-23T11:46:25;95101.31;;;19.70;45.40
9521;BME280;4798;41.574;23.734;2024-02-23T11:48:54;95116.63;;;19.90;45.34
9521;BME280;4798;41.574;23.734;2024-02-23T11:51:23;95124.63;;;20.11;43.00
9521;BME280;4798;41.574;23.734;2024-02-23T11:53:55;95113.16;;;20.59;41.18
9521;BME280;4798;41.574;23.734;2024-02-23T11:56:25;95108.66;;;20.39;42.27
9521;BME280;4798;41.574;23.734;2024-02-23T11:58:55;95112.69;;;20.33;43.60
9521;BME280;4798;41.574;23.734;2024-02-23T12:01:24;95084.59;;;20.21;45.24
9521;BME280;4798;41.574;23.734;2024-02-23T12:03:52;95095.88;;;20.36;41.45
9521;BME280;4798;41.574;23.734;2024-02-23T12:06:21;95109.78;;;20.50;41.99
9521;BME280;4798;41.574;23.734;2024-02-23T12:08:49;95081.69;;;19.57;42.86
9521;BME280;4798;41.574;23.734;2024-02-23T12:11:20;95114.16;;;19.85;46.34
9521;BME280;4798;41.574;23.734;2024-02-23T12:13:49;95116.44;;;20.07;42.54
9521;BME280;4798;41.574;23.734;2024-02-23T12:16:20;95117.06;;;20.37;41.31
9521;BME280;4798;41.574;23.734;2024-02-23T12:18:53;95103.00;;;21.04;40.70
9521;BME280;4798;41.574;23.734;2024-02-23T12:21:23;95100.72;;;21.86;39.61
9521;BME280;4798;41.574;23.734;2024-02-23T12:23:53;95096.31;;;20.74;39.33
9521;BME280;4798;41.574;23.734;2024-02-23T12:26:23;95078.41;;;22.48;37.81
9521;BME280;4798;41.574;23.734;2024-02-23T12:28:51;95086.41;;;23.45;34.90
9521;BME280;4798;41.574;23.734;2024-02-23T12:31:24;95054.19;;;22.20;36.20
9521;BME280;4798;41.574;23.734;2024-02-23T12:33:53;95083.97;;;22.55;36.79
9521;BME280;4798;41.574;23.734;2024-02-23T12:36:23;95085.44;;;22.37;38.57
9521;BME280;4798;41.574;23.734;2024-02-23T12:38:51;95086.66;;;22.55;35.76
9521;BME280;4798;41.574;23.734;2024-02-23T12:41:20;95094.50;;;22.75;35.35
9521;BME280;4798;41.574;23.734;2024-02-23T12:43:51;95091.38;;;22.27;37.07
9521;BME280;4798;41.574;23.734;2024-02-23T12:46:20;95089.53;;;21.16;36.91
9521;BME280;4798;41.574;23.734;2024-02-23T12:48:51;95062.44;;;20.61;38.10
9521;BME280;4798;41.574;23.734;2024-02-23T12:51:25;95083.19;;;20.48;41.29
9521;BME280;4798;41.574;23.734;2024-02-23T12:53:54;95041.31;;;20.75;38.47
9521;BME280;4798;41.574;23.734;2024-02-23T12:56:23;95092.91;;;21.96;36.77
9521;BME280;4798;41.574;23.734;2024-02-23T12:58:53;95082.13;;;22.12;36.04
9521;BME280;4798;41.574;23.734;2024-02-23T13:01:22;95076.09;;;23.16;35.58
9521;BME280;4798;41.574;23.734;2024-02-23T13:03:51;95090.91;;;22.87;34.98
9521;BME280;4798;41.574;23.734;2024-02-23T13:06:20;95088.25;;;22.40;35.52
9521;BME280;4798;41.574;23.734;2024-02-23T13:08:49;95092.84;;;22.55;35.23
9521;BME280;4798;41.574;23.734;2024-02-23T13:11:18;95090.94;;;22.09;35.43
9521;BME280;4798;41.574;23.734;2024-02-23T13:13:46;95041.31;;;21.55;35.82
9521;BME280;4798;41.574;23.734;2024-02-23T13:16:16;95085.38;;;22.49;35.10
9521;BME280;4798;41.574;23.734;2024-02-23T13:18:46;95045.78;;;23.26;33.76
9521;BME280;4798;41.574;23.734;2024-02-23T13:21:15;95037.19;;;22.66;34.34
9521;BME280;4798;41.574;23.734;2024-02-23T13:23:43;95085.63;;;22.28;35.17
9521;BME280;4798;41.574;23.734;2024-02-23T13:26:12;95058.28;;;21.98;34.59